Beausejour, Canada
Current Conditions -  °F | °C
As of 10:00 AM on Thursday 23 Oct 2014 (Local Time) from CYWG Reporting Station
Broken Clouds Broken Clouds  
Wind Chill: 50°   Ceiling: 9500
Heat Index: 50°   Visibility: 15mi
Dew Point: 46°   Wind: 12mph
Humidity: 87%   Direction: 220°SW
Pressure: 29.78"   Gusts: NA
Location:  50.06°N, 96.51°W
Report Text: CYWG 231500Z 22010KT 15SM BKN095 BKN150 10/08 A2978 RMK AC6AC1 SLP089
Loading
Personal Weather Stations






























Interactive Weather Map
Tropical Storm Tracking
New forecast layout! Learn more

10-Day Weather Forecast

Advertisements
Track Severe Weather on mobile